Time;durP1;ratioP1;P1;durP2;ratioP2;P2;SDS_P1;SDS_P2;PMS_P1;PMS_P2;Temp;Humidity;BMP_temperature;BMP_pressure;BME280_temperature;BME280_humidity;BME280_pressure;Samples;Min_cycle;Max_cycle;Signal;HPM_P1;HPM_P2
2023/05/05 03:03:00;;;;;;;8.25;3.42;;;15.30;83.20;;;;;;6193814;22;83522;-76
2023/05/05 03:05:34;;;;;;;3.08;1.38;;;15.40;84.80;;;;;;6220134;22;83069;-76
2023/05/05 03:08:27;;;;;;;4.80;1.25;;;15.40;81.60;;;;;;6218356;22;82958;-78
2023/05/05 03:11:31;;;;;;;5.40;2.15;;;15.50;79.40;;;;;;6221280;22;82418;-78
2023/05/05 03:14:08;;;;;;;5.22;1.02;;;15.70;81.10;;;;;;6219657;22;83520;-79
2023/05/05 03:16:37;;;;;;;3.65;0.70;;;15.70;76.30;;;;;;6220312;22;82792;-78
2023/05/05 03:19:04;;;;;;;3.22;1.00;;;15.90;75.10;;;;;;6220194;22;81881;-80
2023/05/05 03:21:31;;;;;;;3.47;0.88;;;16.00;74.50;;;;;;6222020;22;82215;-81
2023/05/05 03:23:57;;;;;;;3.60;0.80;;;16.10;73.70;;;;;;6220675;22;82431;-81
2023/05/05 03:26:23;;;;;;;3.33;0.80;;;16.10;73.00;;;;;;6220974;22;82195;-80
2023/05/05 03:28:49;;;;;;;5.07;0.80;;;16.20;72.40;;;;;;6194664;22;82500;-81
2023/05/05 03:31:16;;;;;;;3.05;0.82;;;16.20;71.60;;;;;;6221443;22;81949;-83
2023/05/05 03:33:42;;;;;;;1.45;0.45;;;16.30;71.40;;;;;;6193169;22;86208;-79
2023/05/05 03:36:09;;;;;;;3.10;0.75;;;16.30;70.70;;;;;;6221151;22;82236;-84
2023/05/05 03:38:35;;;;;;;2.03;0.52;;;16.40;71.70;;;;;;6221737;22;82119;-83
2023/05/05 03:41:02;;;;;;;2.67;0.75;;;16.40;70.00;;;;;;6221814;22;82532;-82
2023/05/05 03:43:28;;;;;;;1.95;0.47;;;16.50;68.20;;;;;;6220417;22;83202;-78
2023/05/05 03:45:53;;;;;;;5.90;0.68;;;16.60;68.80;;;;;;6220541;22;82764;-78
2023/05/05 03:48:19;;;;;;;5.82;0.57;;;16.60;69.10;;;;;;6220131;22;82527;-78
2023/05/05 03:50:45;;;;;;;1.92;0.63;;;16.60;68.90;;;;;;6218960;22;81600;-80
2023/05/05 03:53:10;;;;;;;2.75;0.60;;;16.60;68.80;;;;;;6218228;22;83618;-77
2023/05/05 03:55:36;;;;;;;1.98;0.60;;;16.60;68.60;;;;;;6218492;22;82240;-78
2023/05/05 03:58:02;;;;;;;1.92;0.50;;;16.60;67.90;;;;;;6220741;22;83117;-77
2023/05/05 04:00:27;;;;;;;2.65;0.43;;;16.60;67.70;;;;;;6222126;22;82824;-79
2023/05/05 04:02:53;;;;;;;2.85;0.93;;;16.70;68.10;;;;;;6195759;22;82774;-80
2023/05/05 04:05:21;;;;;;;4.45;1.20;;;16.70;69.30;;;;;;6190772;22;83218;-79
2023/05/05 04:07:47;;;;;;;3.15;1.05;;;16.60;70.30;;;;;;6190621;22;82046;-79
2023/05/05 04:10:12;;;;;;;3.22;0.98;;;16.50;70.60;;;;;;6164397;22;82303;-75
2023/05/05 04:12:38;;;;;;;3.25;0.73;;;16.40;69.90;;;;;;6187352;22;82717;-80
2023/05/05 04:15:05;;;;;;;2.40;0.63;;;16.30;69.60;;;;;;6189433;22;82914;-79
2023/05/05 04:17:31;;;;;;;4.13;0.75;;;16.30;70.00;;;;;;6191027;22;82392;-79
2023/05/05 04:19:57;;;;;;;1.95;0.47;;;16.30;70.00;;;;;;6164421;22;82419;-80
2023/05/05 04:22:22;;;;;;;4.78;0.60;;;16.20;69.70;;;;;;6190174;22;84372;-81
2023/05/05 04:24:48;;;;;;;3.80;0.63;;;16.20;70.10;;;;;;6190825;22;84542;-81
2023/05/05 04:27:14;;;;;;;1.95;0.52;;;16.20;70.20;;;;;;6190591;22;82263;-80
2023/05/05 04:29:40;;;;;;;5.03;0.75;;;16.30;69.90;;;;;;6191840;22;82001;-80
2023/05/05 04:32:05;;;;;;;2.63;0.60;;;16.30;69.80;;;;;;6190459;22;83059;-78
2023/05/05 04:34:31;;;;;;;3.30;0.40;;;16.40;69.80;;;;;;6190188;22;84135;-77
2023/05/05 04:36:57;;;;;;;4.93;0.63;;;16.50;69.50;;;;;;6191396;22;82236;-80
2023/05/05 04:39:22;;;;;;;2.53;0.90;;;16.50;69.30;;;;;;6191145;22;81504;-81
2023/05/05 04:41:48;;;;;;;3.67;0.70;;;16.60;69.40;;;;;;6190170;22;83037;-79
2023/05/05 04:44:14;;;;;;;3.50;0.63;;;16.60;69.50;;;;;;6190258;22;83197;-78
2023/05/05 04:46:40;;;;;;;5.88;2.60;;;16.70;69.90;;;;;;6187870;22;83235;-79
2023/05/05 04:49:05;;;;;;;9.23;5.22;;;16.80;72.80;;;;;;6190494;22;82129;-79
2023/05/05 04:51:31;;;;;;;7.95;4.65;;;17.00;76.10;;;;;;6189875;22;82539;-77
2023/05/05 04:53:57;;;;;;;12.25;5.43;;;17.20;76.00;;;;;;6190443;22;82389;-78
2023/05/05 04:56:23;;;;;;;8.55;5.22;;;17.40;76.90;;;;;;6190798;22;82359;-78
2023/05/05 04:58:49;;;;;;;11.43;5.95;;;17.70;77.50;;;;;;6190340;22;82158;-77
2023/05/05 05:01:15;;;;;;;13.50;5.78;;;17.80;77.00;;;;;;6189896;22;82802;-79
2023/05/05 05:03:41;;;;;;;9.35;5.97;;;17.90;76.90;;;;;;6189686;22;83036;-79
2023/05/05 05:06:07;;;;;;;11.27;5.70;;;17.90;76.90;;;;;;6190293;22;82414;-78
2023/05/05 05:08:32;;;;;;;10.07;5.38;;;17.90;76.70;;;;;;6190977;22;82507;-77
2023/05/05 05:10:59;;;;;;;4.88;2.08;;;17.80;77.40;;;;;;6188455;22;84254;-78
2023/05/05 05:13:24;;;;;;;11.30;5.85;;;17.80;72.40;;;;;;6188286;22;84110;-78
2023/05/05 05:15:50;;;;;;;9.82;5.75;;;17.80;77.60;;;;;;6190868;22;82263;-78
2023/05/05 05:18:16;;;;;;;8.45;4.85;;;18.10;77.80;;;;;;6190640;22;82338;-78
2023/05/05 05:20:42;;;;;;;6.18;2.90;;;19.30;73.10;;;;;;6190821;22;83259;-78
2023/05/05 05:23:08;;;;;;;4.97;1.55;;;20.70;66.50;;;;;;6189787;22;82893;-79
2023/05/05 05:25:33;;;;;;;4.75;1.58;;;21.80;60.30;;;;;;6190695;22;82238;-79
2023/05/05 05:27:59;;;;;;;5.45;1.10;;;22.70;56.10;;;;;;6190633;22;81729;-78
2023/05/05 05:30:25;;;;;;;4.45;1.58;;;23.20;54.70;;;;;;6190132;22;83378;-78
2023/05/05 05:32:51;;;;;;;5.28;0.73;;;23.20;53.50;;;;;;6190642;22;82735;-79
2023/05/05 05:35:16;;;;;;;8.98;1.02;;;23.90;54.10;;;;;;6190383;22;83200;-78
2023/05/05 05:37:42;;;;;;;11.77;1.25;;;23.90;52.40;;;;;;6165398;22;82250;-77
2023/05/05 05:40:08;;;;;;;7.60;1.02;;;24.10;51.50;;;;;;6188597;22;82477;-78
2023/05/05 05:42:34;;;;;;;4.78;1.20;;;24.80;51.30;;;;;;6190745;22;82252;-77
2023/05/05 05:45:00;;;;;;;6.45;3.67;;;24.80;50.80;;;;;;6188849;22;82072;-78
2023/05/05 05:47:26;;;;;;;9.60;5.22;;;24.90;54.40;;;;;;6187250;22;82254;-79
2023/05/05 05:49:52;;;;;;;9.50;5.85;;;24.80;56.00;;;;;;6191509;22;82310;-78
2023/05/05 05:52:18;;;;;;;12.15;6.13;;;24.80;57.20;;;;;;6192151;22;82575;-78
2023/05/05 05:54:43;;;;;;;8.75;5.95;;;24.80;57.60;;;;;;6192376;22;82221;-77
2023/05/05 05:57:09;;;;;;;7.80;3.53;;;25.00;57.90;;;;;;6191645;22;82114;-77
2023/05/05 05:59:35;;;;;;;8.23;4.45;;;25.90;53.10;;;;;;6190315;22;83855;-77
2023/05/05 06:02:00;;;;;;;10.18;5.55;;;27.10;53.90;;;;;;6191484;22;84044;-79
2023/05/05 06:04:26;;;;;;;10.15;6.50;;;28.20;52.60;;;;;;6185166;22;82005;-79
2023/05/05 06:06:52;;;;;;;10.52;5.30;;;28.90;51.10;;;;;;6181702;22;82683;-78
2023/05/05 06:09:17;;;;;;;8.65;4.85;;;28.60;50.40;;;;;;6185109;22;83623;-79
2023/05/05 06:11:43;;;;;;;8.77;4.90;;;28.70;51.60;;;;;;6189442;22;82270;-78
2023/05/05 06:14:09;;;;;;;9.05;5.05;;;28.40;51.00;;;;;;6188445;22;81851;-80
2023/05/05 06:16:35;;;;;;;7.75;4.55;;;28.30;51.00;;;;;;6190645;22;81668;-78
2023/05/05 06:19:00;;;;;;;7.78;5.60;;;28.30;52.30;;;;;;6159653;22;84287;-77
2023/05/05 06:21:26;;;;;;;6.90;5.50;;;28.50;52.10;;;;;;6181343;22;83035;-80
2023/05/05 06:23:52;;;;;;;8.32;4.80;;;29.20;51.00;;;;;;6187065;22;82910;-79
2023/05/05 06:26:17;;;;;;;9.63;6.57;;;29.70;48.70;;;;;;6187634;22;82454;-80
2023/05/05 06:28:43;;;;;;;8.50;6.80;;;30.50;48.70;;;;;;6183771;22;82918;-80
2023/05/05 06:31:11;;;;;;;7.68;5.10;;;31.00;46.80;;;;;;6190665;22;82575;-82
2023/05/05 06:33:37;;;;;;;10.48;5.55;;;30.40;47.40;;;;;;6190642;22;81903;-81
2023/05/05 06:36:03;;;;;;;7.68;4.72;;;30.30;47.80;;;;;;6190586;22;82804;-81
2023/05/05 06:38:28;;;;;;;10.82;4.82;;;30.80;46.70;;;;;;6184714;22;82596;-79
2023/05/05 06:40:54;;;;;;;11.10;5.40;;;30.10;47.10;;;;;;6189287;22;81722;-78
2023/05/05 06:43:20;;;;;;;10.60;5.80;;;29.80;48.00;;;;;;6191278;22;82215;-82
2023/05/05 06:45:46;;;;;;;8.10;5.35;;;30.00;47.80;;;;;;6189270;22;82480;-81
2023/05/05 06:48:12;;;;;;;8.30;5.55;;;30.30;47.30;;;;;;6164012;22;86721;-82
2023/05/05 06:50:37;;;;;;;7.93;4.57;;;31.20;46.10;;;;;;6190622;22;84073;-82
2023/05/05 06:53:03;;;;;;;7.10;4.55;;;32.00;43.80;;;;;;6191325;22;82073;-85
2023/05/05 06:55:29;;;;;;;4.00;2.97;;;32.20;42.50;;;;;;6165251;22;82473;-85
2023/05/05 06:57:55;;;;;;;5.53;2.95;;;32.60;41.80;;;;;;6191982;22;83489;-84
2023/05/05 07:00:21;;;;;;;6.65;2.95;;;33.30;39.60;;;;;;6164812;22;84578;-85
2023/05/05 07:02:47;;;;;;;6.90;3.00;;;33.80;38.50;;;;;;6191028;22;82250;-89
2023/05/05 07:05:13;;;;;;;5.13;2.30;;;33.40;38.00;;;;;;6192612;22;81564;-83
2023/05/05 07:07:50;;;;;;;8.07;3.55;;;33.40;40.00;;;;;;6191565;22;83014;-87
2023/05/05 07:10:16;;;;;;;5.22;2.78;;;33.80;38.20;;;;;;6191659;22;83833;-84
2023/05/05 07:12:41;;;;;;;6.13;3.28;;;34.50;37.10;;;;;;6191368;22;83292;-82
2023/05/05 07:15:08;;;;;;;5.75;2.47;;;34.40;37.00;;;;;;6191034;22;82190;-83
2023/05/05 07:17:33;;;;;;;7.60;3.17;;;34.40;38.30;;;;;;6190548;22;83593;-83
2023/05/05 07:19:59;;;;;;;5.88;3.22;;;35.00;37.20;;;;;;6190520;22;82235;-83
2023/05/05 07:22:24;;;;;;;5.90;3.35;;;35.40;35.70;;;;;;6190991;22;82477;-83
2023/05/05 07:24:52;;;;;;;8.80;3.28;;;36.60;34.60;;;;;;6191822;22;82283;-81
2023/05/05 07:27:19;;;;;;;7.00;2.35;;;37.50;35.10;;;;;;6191725;22;82783;-80
2023/05/05 07:29:44;;;;;;;3.97;3.42;;;38.00;33.60;;;;;;6191617;22;83180;-82
2023/05/05 07:32:10;;;;;;;5.88;2.70;;;38.70;33.60;;;;;;6164377;22;83370;-83
2023/05/05 07:34:36;;;;;;;5.43;3.10;;;39.20;32.60;;;;;;6164921;22;82483;-82
2023/05/05 07:37:03;;;;;;;5.28;2.47;;;38.60;32.50;;;;;;6190954;22;84273;-81
2023/05/05 07:39:30;;;;;;;5.43;2.90;;;37.60;34.10;;;;;;6164604;22;86053;-81
2023/05/05 07:41:55;;;;;;;4.78;3.13;;;37.90;34.10;;;;;;6191072;22;82328;-81
2023/05/05 07:44:21;;;;;;;5.13;3.55;;;37.80;34.60;;;;;;6165093;22;82206;-82
2023/05/05 07:46:47;;;;;;;6.35;3.13;;;38.30;33.90;;;;;;6164766;22;84565;-82
2023/05/05 07:49:12;;;;;;;4.43;3.17;;;38.10;33.20;;;;;;6191265;22;82936;-82
2023/05/05 07:51:38;;;;;;;7.18;3.17;;;37.60;33.60;;;;;;6189722;22;82088;-82
2023/05/05 07:54:04;;;;;;;8.55;3.97;;;38.60;34.40;;;;;;6192045;22;81472;-82
2023/05/05 07:56:30;;;;;;;4.20;3.80;;;39.50;32.00;;;;;;6191445;22;83253;-83
2023/05/05 07:58:56;;;;;;;3.92;3.38;;;39.60;31.70;;;;;;6191723;22;82613;-83
2023/05/05 08:01:22;;;;;;;4.50;2.80;;;39.70;31.40;;;;;;6163335;22;83304;-81
2023/05/05 08:03:47;;;;;;;4.88;3.10;;;40.60;32.50;;;;;;6191494;22;82447;-82
2023/05/05 08:06:20;;;;;;;6.70;3.50;;;40.60;32.50;;;;;;6164111;22;86710;-82
2023/05/05 08:08:47;;;;;;;10.25;3.85;;;40.70;31.80;;;;;;6164658;22;86447;-83
2023/05/05 08:11:14;;;;;;;11.95;3.90;;;40.70;31.40;;;;;;6164710;22;82739;-82
2023/05/05 08:13:41;;;;;;;5.28;3.58;;;40.50;32.90;;;;;;6191781;22;82384;-82
2023/05/05 08:16:07;;;;;;;4.00;3.20;;;41.10;32.90;;;;;;6164540;22;86757;-82
2023/05/05 08:18:36;;;;;;;8.02;3.30;;;41.80;30.00;;;;;;6191688;22;82598;-82
2023/05/05 08:21:05;;;;;;;5.38;3.83;;;41.60;29.90;;;;;;6164401;22;83454;-82
2023/05/05 08:23:32;;;;;;;4.60;4.10;;;41.30;30.50;;;;;;6164512;22;82577;-83
2023/05/05 08:25:57;;;;;;;5.38;3.72;;;41.30;30.30;;;;;;6189843;22;83961;-82
2023/05/05 08:28:23;;;;;;;9.35;4.82;;;41.50;30.20;;;;;;6191224;22;83534;-82
2023/05/05 08:30:49;;;;;;;6.93;4.40;;;41.20;30.60;;;;;;6190515;22;82404;-84
2023/05/05 08:33:16;;;;;;;5.18;4.35;;;41.60;31.20;;;;;;6192082;22;82200;-82
2023/05/05 08:35:42;;;;;;;6.97;4.10;;;42.40;30.90;;;;;;6191397;22;82789;-84
2023/05/05 08:38:09;;;;;;;7.85;3.83;;;42.60;30.60;;;;;;6191071;22;85373;-82
2023/05/05 08:40:36;;;;;;;5.57;3.72;;;42.80;30.60;;;;;;6191254;22;82552;-81
2023/05/05 08:43:03;;;;;;;;;;;42.30;31.10;;;;;;6165069;22;81872;-81
2023/05/05 08:45:29;;;;;;;4.70;4.05;;;42.60;31.40;;;;;;6192856;22;83044;-82
2023/05/05 08:48:00;;;;;;;5.88;4.22;;;42.90;31.00;;;;;;6164043;22;87141;-81
2023/05/05 08:50:27;;;;;;;6.20;4.63;;;42.80;30.80;;;;;;6191035;22;83289;-80
2023/05/05 08:53:06;;;;;;;6.15;4.50;;;42.60;30.90;;;;;;6189491;22;82196;-81
2023/05/05 08:55:45;;;;;;;5.13;3.40;;;42.80;31.40;;;;;;6163976;22;85525;-81
2023/05/05 08:58:11;;;;;;;6.95;4.85;;;42.60;29.90;;;;;;6190845;22;82565;-80
2023/05/05 09:00:41;;;;;;;7.93;4.63;;;42.70;30.30;;;;;;6191427;22;82026;-80
2023/05/05 09:03:06;;;;;;;7.47;4.88;;;42.70;30.60;;;;;;6189405;22;82541;-81
2023/05/05 09:05:32;;;;;;;6.85;3.22;;;42.30;30.50;;;;;;6164227;22;83703;-80
2023/05/05 09:07:58;;;;;;;6.50;4.03;;;41.90;30.40;;;;;;6191608;22;82442;-82
2023/05/05 09:10:26;;;;;;;5.65;3.65;;;41.50;31.50;;;;;;6190958;22;82263;-77
2023/05/05 09:12:52;;;;;;;;;;;41.90;32.10;;;;;;6164724;22;82536;-80
2023/05/05 09:15:17;;;;;;;5.07;3.72;;;42.10;30.90;;;;;;6192013;22;83599;-80
2023/05/05 09:17:43;;;;;;;6.07;4.85;;;42.00;30.00;;;;;;6191151;22;84497;-78
2023/05/05 09:20:13;;;;;;;6.97;6.30;;;42.10;30.80;;;;;;6190728;22;82315;-79
2023/05/05 09:22:46;;;;;;;5.10;4.18;;;41.50;29.90;;;;;;6163337;22;82259;-82
2023/05/05 09:25:13;;;;;;;4.80;4.38;;;42.30;31.10;;;;;;6189202;22;82531;-81
2023/05/05 09:27:47;;;;;;;5.53;3.88;;;42.90;30.80;;;;;;6163639;22;86025;-81
2023/05/05 09:30:23;;;;;;;9.95;3.88;;;43.30;29.90;;;;;;6189246;22;81928;-81
2023/05/05 09:32:51;;;;;;;5.70;3.65;;;43.50;30.00;;;;;;6163281;22;81697;-80
2023/05/05 09:35:19;;;;;;;4.03;3.65;;;43.10;29.70;;;;;;6188984;22;82930;-80
2023/05/05 09:37:45;;;;;;;4.30;3.92;;;42.70;29.90;;;;;;6189933;22;82772;-80
2023/05/05 09:40:13;;;;;;;5.15;3.85;;;43.30;30.00;;;;;;6188873;22;83186;-80
2023/05/05 09:42:40;;;;;;;7.60;5.28;;;43.40;29.30;;;;;;6190251;22;82147;-80
2023/05/05 09:45:18;;;;;;;4.00;3.15;;;42.80;29.20;;;;;;6162085;22;86018;-80
2023/05/05 09:47:47;;;;;;;9.60;3.92;;;42.50;30.00;;;;;;6162861;22;84129;-79
2023/05/05 09:50:20;;;;;;;6.88;3.15;;;41.80;30.60;;;;;;6189617;22;82422;-79
2023/05/05 09:52:56;;;;;;;4.65;3.03;;;41.50;30.70;;;;;;6163497;22;82460;-77
2023/05/05 09:55:23;;;;;;;3.33;2.55;;;40.90;30.80;;;;;;6189078;22;82481;-74
2023/05/05 09:57:49;;;;;;;3.35;2.63;;;40.40;31.60;;;;;;6162940;22;85111;-78
2023/05/05 10:00:15;;;;;;;9.20;2.92;;;39.50;32.10;;;;;;6188641;22;82475;-77
2023/05/05 10:02:41;;;;;;;4.45;2.83;;;39.20;32.40;;;;;;6187857;22;82209;-77
2023/05/05 10:05:09;;;;;;;3.70;2.38;;;38.50;32.60;;;;;;6189194;22;83841;-77
2023/05/05 10:07:36;;;;;;;5.13;2.30;;;37.30;33.70;;;;;;6187446;22;83244;-76
2023/05/05 10:10:04;;;;;;;7.43;2.00;;;36.50;35.00;;;;;;6187942;22;82220;-77
2023/05/05 10:12:30;;;;;;;3.20;2.22;;;35.80;35.60;;;;;;6189828;22;82399;-76
2023/05/05 10:15:00;;;;;;;5.38;2.40;;;34.80;36.60;;;;;;6191688;22;82861;-76
2023/05/05 10:17:29;;;;;;;4.22;1.75;;;33.70;39.40;;;;;;6190907;22;82379;-76
2023/05/05 10:19:58;;;;;;;3.67;1.70;;;32.20;40.00;;;;;;6190630;22;82488;-75
2023/05/05 10:22:25;;;;;;;4.38;2.28;;;31.80;40.90;;;;;;6191734;22;81574;-75
2023/05/05 10:25:00;;;;;;;3.53;1.98;;;31.20;41.50;;;;;;6187733;22;82654;-75
2023/05/05 10:27:27;;;;;;;;;;;30.80;41.70;;;;;;6190308;22;82341;-75
2023/05/05 10:29:55;;;;;;;2.58;1.42;;;30.50;43.00;;;;;;6189039;22;83470;-75
2023/05/05 10:32:42;;;;;;;3.67;1.23;;;30.10;43.00;;;;;;6187967;22;82166;-74
2023/05/05 10:35:08;;;;;;;3.67;0.95;;;29.50;45.40;;;;;;6187687;22;82518;-74
2023/05/05 10:37:37;;;;;;;5.85;1.42;;;29.30;44.40;;;;;;6189635;22;83517;-75
2023/05/05 10:40:03;;;;;;;6.13;1.55;;;29.10;44.20;;;;;;6186456;22;82400;-76
2023/05/05 10:42:30;;;;;;;3.15;1.35;;;29.00;43.80;;;;;;6190334;22;81928;-77
2023/05/05 10:44:56;;;;;;;6.07;2.28;;;28.60;45.40;;;;;;6188603;22;82874;-75
2023/05/05 10:47:23;;;;;;;9.00;0.98;;;28.60;45.00;;;;;;6189081;22;82217;-76
2023/05/05 10:50:02;;;;;;;4.32;1.50;;;28.50;46.50;;;;;;6189243;22;83061;-75
2023/05/05 10:52:41;;;;;;;2.67;1.30;;;28.50;46.30;;;;;;6188568;22;82284;-77
2023/05/05 10:55:20;;;;;;;2.80;1.50;;;28.50;45.40;;;;;;6184004;22;84777;-78
2023/05/05 10:57:50;;;;;;;5.18;1.25;;;28.50;46.10;;;;;;6157774;22;85262;-78
2023/05/05 11:00:38;;;;;;;6.22;1.65;;;28.30;45.20;;;;;;6182251;22;82325;-77
2023/05/05 11:03:16;;;;;;;3.28;1.33;;;28.30;45.70;;;;;;6157289;22;85130;-77
2023/05/05 11:06:04;;;;;;;3.17;0.88;;;27.40;47.00;;;;;;6158166;22;83337;-77
2023/05/05 11:08:31;;;;;;;2.55;1.02;;;28.00;48.20;;;;;;6156173;22;84318;-77
2023/05/05 11:10:57;;;;;;;6.03;2.22;;;28.30;47.00;;;;;;6179892;22;82398;-77
2023/05/05 11:13:23;;;;;;;2.58;1.10;;;28.30;46.90;;;;;;6184745;22;81710;-78
2023/05/05 11:15:51;;;;;;;3.25;1.52;;;28.50;47.50;;;;;;6186675;22;83519;-75
2023/05/05 11:18:38;;;;;;;6.05;1.55;;;28.60;47.20;;;;;;6186584;22;83406;-78
2023/05/05 11:21:06;;;;;;;3.83;1.02;;;28.60;47.20;;;;;;6183128;22;83618;-77
2023/05/05 11:23:32;;;;;;;4.10;1.00;;;28.90;46.00;;;;;;6183294;22;82318;-76
2023/05/05 11:25:58;;;;;;;4.78;1.05;;;28.80;45.30;;;;;;6185704;22;83449;-77
2023/05/05 11:28:28;;;;;;;2.72;0.82;;;28.80;46.50;;;;;;6185327;22;82736;-77
2023/05/05 11:30:54;;;;;;;3.05;1.30;;;28.80;45.80;;;;;;6184176;22;82447;-75
2023/05/05 11:33:29;;;;;;;2.58;1.20;;;28.80;45.40;;;;;;6186262;22;82381;-75
2023/05/05 11:36:11;;;;;;;2.15;1.15;;;28.90;46.10;;;;;;6187001;22;83882;-77
2023/05/05 11:38:55;;;;;;;3.88;1.67;;;28.90;46.70;;;;;;6188417;22;82898;-77
2023/05/05 11:41:33;;;;;;;3.80;0.90;;;28.90;46.20;;;;;;6187018;22;82471;-78
2023/05/05 11:44:32;;;;;;;13.13;2.42;;;28.80;45.10;;;;;;6184935;22;82462;-76
2023/05/05 11:46:58;;;;;;;5.30;1.45;;;28.40;46.20;;;;;;6183560;22;84005;-76
2023/05/05 11:49:28;;;;;;;5.43;1.50;;;28.30;48.00;;;;;;6185845;22;82543;-75
2023/05/05 11:52:07;;;;;;;4.72;1.23;;;28.40;46.30;;;;;;6187193;22;82052;-74
2023/05/05 11:54:40;;;;;;;5.60;1.10;;;28.30;45.40;;;;;;6179693;22;82324;-74
2023/05/05 11:57:07;;;;;;;4.03;1.00;;;28.10;46.90;;;;;;6187569;22;82997;-74
2023/05/05 11:59:36;;;;;;;6.97;2.30;;;27.90;47.00;;;;;;6184389;22;82782;-74
2023/05/05 12:02:02;;;;;;;4.35;1.35;;;28.00;46.60;;;;;;6186753;22;81961;-74
2023/05/05 12:04:30;;;;;;;4.45;1.25;;;28.10;47.30;;;;;;6187871;22;81687;-74
2023/05/05 12:06:57;;;;;;;9.65;1.98;;;28.10;46.90;;;;;;6187978;22;82731;-74
2023/05/05 12:09:23;;;;;;;3.08;1.20;;;27.90;47.30;;;;;;6187290;22;82099;-74
2023/05/05 12:11:56;;;;;;;5.53;1.42;;;28.00;47.40;;;;;;6187262;22;83094;-74
2023/05/05 12:14:24;;;;;;;5.28;1.10;;;28.20;46.80;;;;;;6189321;22;82248;-74
2023/05/05 12:17:06;;;;;;;3.28;1.40;;;28.40;46.70;;;;;;6189029;22;82239;-74
2023/05/05 12:19:32;;;;;;;4.45;1.45;;;28.40;46.50;;;;;;6188487;22;82418;-75
2023/05/05 12:21:59;;;;;;;8.05;1.55;;;28.40;46.50;;;;;;6186485;22;82192;-74
2023/05/05 12:24:24;;;;;;;6.30;1.70;;;28.60;46.80;;;;;;6187594;22;82438;-74
2023/05/05 12:26:50;;;;;;;4.18;1.38;;;28.40;45.80;;;;;;6187816;22;82600;-74
2023/05/05 12:29:28;;;;;;;3.30;0.98;;;28.50;46.60;;;;;;6185876;22;82783;-77
2023/05/05 12:31:54;;;;;;;5.10;1.38;;;28.60;45.80;;;;;;6185252;22;82292;-76
2023/05/05 12:34:21;;;;;;;5.97;1.75;;;28.60;45.40;;;;;;6183571;22;82335;-75
2023/05/05 12:36:47;;;;;;;5.15;0.77;;;28.70;45.90;;;;;;6186714;22;84551;-75
2023/05/05 12:39:13;;;;;;;2.22;0.88;;;28.80;46.60;;;;;;6188101;22;82305;-75
2023/05/05 12:41:39;;;;;;;4.88;0.82;;;28.90;46.10;;;;;;6188455;22;82562;-75
2023/05/05 12:44:04;;;;;;;7.40;2.20;;;28.90;44.90;;;;;;6187770;22;82300;-74
2023/05/05 12:46:42;;;;;;;5.78;1.05;;;28.90;45.20;;;;;;6185954;22;83158;-74
2023/05/05 12:49:08;;;;;;;4.00;0.93;;;29.20;46.40;;;;;;6188306;22;82573;-75
2023/05/05 12:51:35;;;;;;;4.28;1.10;;;29.10;45.20;;;;;;6186424;22;82402;-76
2023/05/05 12:54:05;;;;;;;4.13;1.27;;;29.10;45.70;;;;;;6189404;22;81533;-75
2023/05/05 12:56:33;;;;;;;3.10;1.10;;;28.90;46.00;;;;;;6189246;22;83334;-74
2023/05/05 12:58:59;;;;;;;8.73;0.73;;;28.90;46.20;;;;;;6190722;22;82247;-75
2023/05/05 13:01:26;;;;;;;2.67;0.88;;;28.90;46.10;;;;;;6186713;22;83364;-76
2023/05/05 13:04:05;;;;;;;9.82;1.95;;;28.70;44.80;;;;;;6189898;22;82740;-76
2023/05/05 13:06:31;;;;;;;4.15;1.27;;;28.50;45.90;;;;;;6188213;22;82357;-77
2023/05/05 13:08:57;;;;;;;3.15;1.17;;;28.50;44.80;;;;;;6187927;22;82456;-73
2023/05/05 13:11:23;;;;;;;5.53;1.02;;;28.50;44.90;;;;;;6187720;22;82115;-75
2023/05/05 13:13:48;;;;;;;2.97;1.08;;;28.60;45.00;;;;;;6186941;22;82499;-75
2023/05/05 13:16:14;;;;;;;3.22;1.20;;;28.60;44.60;;;;;;6187241;22;82363;-75
2023/05/05 13:18:44;;;;;;;2.25;0.90;;;28.60;44.40;;;;;;6163308;22;83421;-75
2023/05/05 13:21:11;;;;;;;2.60;0.93;;;28.70;44.40;;;;;;6186668;22;82041;-74
2023/05/05 13:23:36;;;;;;;4.93;1.15;;;28.60;43.60;;;;;;6188829;22;82450;-75
2023/05/05 13:26:02;;;;;;;5.93;1.10;;;28.40;43.50;;;;;;6188150;22;83783;-75
2023/05/05 13:28:28;;;;;;;3.78;1.05;;;28.30;44.40;;;;;;6189425;22;83617;-75
2023/05/05 13:30:54;;;;;;;5.78;1.05;;;28.20;44.70;;;;;;6190235;22;82540;-75
2023/05/05 13:33:20;;;;;;;5.35;0.88;;;28.10;44.80;;;;;;6187302;22;82316;-77
2023/05/05 13:35:46;;;;;;;3.88;0.95;;;27.90;45.70;;;;;;6162479;22;83272;-75
2023/05/05 13:38:12;;;;;;;3.25;1.05;;;27.80;45.80;;;;;;6187974;22;83099;-76
2023/05/05 13:40:37;;;;;;;2.72;1.00;;;27.60;46.00;;;;;;6161758;22;82344;-78
2023/05/05 13:43:03;;;;;;;4.00;1.27;;;27.60;46.20;;;;;;6190136;22;81507;-78
2023/05/05 13:45:29;;;;;;;2.65;0.80;;;27.60;46.30;;;;;;6162415;22;86658;-78
2023/05/05 13:47:56;;;;;;;2.60;1.08;;;27.70;45.50;;;;;;6163357;22;84259;-76
2023/05/05 13:50:22;;;;;;;5.68;0.80;;;27.60;45.20;;;;;;6190473;22;82905;-79
2023/05/05 13:52:48;;;;;;;4.32;0.90;;;27.50;45.40;;;;;;6163070;22;82600;-74
2023/05/05 13:55:14;;;;;;;2.28;1.13;;;27.50;45.60;;;;;;6191839;22;82456;-78
2023/05/05 13:57:39;;;;;;;4.82;1.00;;;27.60;45.10;;;;;;6162759;22;84690;-78
2023/05/05 14:00:06;;;;;;;4.30;1.35;;;27.60;45.50;;;;;;6188664;22;82205;-75
2023/05/05 14:02:32;;;;;;;2.78;0.98;;;27.60;45.60;;;;;;6194626;22;82183;-80
2023/05/05 14:04:57;;;;;;;3.63;1.13;;;27.60;46.60;;;;;;6194012;22;83182;-78
2023/05/05 14:07:23;;;;;;;2.55;1.13;;;27.60;46.70;;;;;;6194411;22;82747;-81
2023/05/05 14:09:49;;;;;;;3.28;1.00;;;27.80;47.20;;;;;;6194804;22;82493;-80
2023/05/05 14:12:15;;;;;;;3.70;1.15;;;27.80;46.60;;;;;;6192088;22;81986;-80
2023/05/05 14:14:43;;;;;;;3.53;1.08;;;27.80;46.00;;;;;;6193060;22;83812;-80
2023/05/05 14:17:09;;;;;;;7.72;0.98;;;27.70;47.40;;;;;;6193420;22;83356;-80
2023/05/05 14:19:35;;;;;;;3.85;1.08;;;27.60;47.30;;;;;;6193084;22;82283;-80
2023/05/05 14:22:00;;;;;;;1.90;0.90;;;27.60;47.60;;;;;;6194014;22;82317;-80
2023/05/05 14:24:26;;;;;;;3.95;1.00;;;27.70;47.80;;;;;;6194464;22;82218;-80
2023/05/05 14:26:52;;;;;;;4.75;1.10;;;27.70;47.10;;;;;;6194194;22;83771;-79
2023/05/05 14:29:17;;;;;;;8.90;1.77;;;27.80;46.50;;;;;;6191730;22;81840;-80
2023/05/05 14:31:43;;;;;;;5.75;1.30;;;27.60;47.20;;;;;;6194210;22;81402;-80
2023/05/05 14:34:09;;;;;;;4.35;2.00;;;27.50;47.50;;;;;;6194751;22;82531;-80
2023/05/05 14:36:34;;;;;;;4.45;1.02;;;27.50;48.10;;;;;;6194818;22;83123;-80
2023/05/05 14:39:00;;;;;;;3.63;1.33;;;27.60;47.80;;;;;;6191825;22;83327;-80
2023/05/05 14:41:27;;;;;;;4.43;1.45;;;27.80;47.80;;;;;;6192113;22;82099;-80
2023/05/05 14:43:52;;;;;;;4.47;1.45;;;27.80;47.90;;;;;;6194791;22;83088;-80
2023/05/05 14:46:18;;;;;;;6.93;1.25;;;27.70;47.30;;;;;;6192409;22;81973;-80
2023/05/05 14:48:45;;;;;;;4.18;1.20;;;27.50;46.90;;;;;;6194417;22;81968;-80
2023/05/05 14:51:12;;;;;;;4.60;1.10;;;27.30;48.00;;;;;;6195975;22;82138;-80
2023/05/05 14:53:37;;;;;;;3.42;0.93;;;27.20;47.80;;;;;;6168040;22;86219;-80
2023/05/05 14:56:03;;;;;;;2.67;0.90;;;27.20;47.60;;;;;;6195099;22;82960;-80
2023/05/05 14:58:29;;;;;;;4.50;1.13;;;27.20;47.50;;;;;;6192808;22;82556;-80
2023/05/05 15:00:55;;;;;;;5.13;1.10;;;27.10;47.90;;;;;;6167792;22;82120;-81
2023/05/05 15:03:21;;;;;;;2.78;1.23;;;27.00;48.20;;;;;;6194308;22;84356;-80
2023/05/05 15:05:47;;;;;;;5.97;0.85;;;27.10;48.70;;;;;;6195640;22;84081;-80
2023/05/05 15:08:13;;;;;;;4.35;1.23;;;27.00;49.50;;;;;;6168868;22;84370;-80
2023/05/05 15:10:39;;;;;;;4.28;1.30;;;27.10;47.30;;;;;;6161900;22;82655;-80
2023/05/05 15:13:05;;;;;;;6.15;1.10;;;27.30;48.90;;;;;;6193906;22;82490;-80
2023/05/05 15:15:30;;;;;;;3.22;1.00;;;27.40;48.60;;;;;;6191367;22;82668;-80
2023/05/05 15:17:56;;;;;;;4.40;2.40;;;27.40;48.20;;;;;;6195218;22;81857;-80
2023/05/05 15:20:22;;;;;;;4.85;1.15;;;27.20;46.80;;;;;;6194742;22;81397;-79
2023/05/05 15:22:47;;;;;;;5.32;1.88;;;27.10;47.30;;;;;;6193300;22;81916;-80
2023/05/05 15:25:14;;;;;;;5.28;1.38;;;27.10;47.00;;;;;;6194788;22;82629;-80
2023/05/05 15:27:40;;;;;;;4.05;1.02;;;26.90;47.00;;;;;;6195186;22;82948;-80
2023/05/05 15:30:07;;;;;;;7.00;1.30;;;26.90;48.60;;;;;;6195879;22;81901;-79
2023/05/05 15:32:33;;;;;;;4.72;1.52;;;26.80;48.70;;;;;;6191489;22;83289;-79
2023/05/05 15:34:59;;;;;;;6.10;1.60;;;26.60;49.50;;;;;;6195902;22;83674;-79
2023/05/05 15:37:27;;;;;;;5.50;1.52;;;26.50;49.20;;;;;;6195933;22;81737;-80
2023/05/05 15:39:54;;;;;;;6.13;1.02;;;26.40;49.60;;;;;;6196225;22;81826;-80
2023/05/05 15:42:20;;;;;;;5.90;1.05;;;26.20;49.40;;;;;;6195732;22;83365;-79
2023/05/05 15:44:45;;;;;;;3.97;1.23;;;26.10;50.00;;;;;;6169435;22;84623;-80
2023/05/05 15:47:11;;;;;;;3.45;1.02;;;26.00;51.20;;;;;;6165105;22;84411;-78
2023/05/05 15:49:36;;;;;;;3.58;0.75;;;25.90;50.70;;;;;;6195967;22;81930;-78
2023/05/05 15:52:02;;;;;;;3.35;1.05;;;25.90;51.20;;;;;;6195051;22;83919;-78